• Join FlightAware (Why Join?)
  • Login
  • US Flag 
03:00PM EDT


 

Airport Tracker/Info


-or-


 

Live Flight TrackerFlight Track Log ✈ USC105 ✈ 10-May-2013 ✈ KDPA - KYIP

Flight Track Log - Related Links

Times and Time Zones

All times are in EDT time to prevent confusion due to time zone crossing. See the USC105 flight status page for this flight to view local times or setup timezone preferences in your user account.

Time Position Orientation Groundspeed Altitude Reporting Facility
EDT Latitude Longitude Course Direction KTS MPH feet Rate Location/Type
05:25AM 41.8667 -88.2500 180° South 125 144 1,600  Level Chicago TRACON
05:26AM 41.8333 -88.2500 180° South 120 138 2,700 900 Climbing Chicago TRACON
05:27AM 41.8372 -88.2272 77° East 147 169 3,100 720 Climbing Chicago Center
05:28AM 41.8428 -88.1747 82° East 145 167 3,900 720 Climbing Chicago Center
05:29AM 41.8486 -88.1189 82° East 148 170 4,600 660 Climbing Chicago Center
05:30AM 41.8572 -88.0625 78° East 151 174 5,300 660 Climbing Chicago Center
05:31AM 41.8658 -88.0042 79° East 156 180 6,000 660 Climbing Chicago Center
05:32AM 41.8717 -87.9458 82° East 158 182 6,700 780 Climbing Chicago Center
05:33AM 41.8764 -87.8758 85° East 157 181 7,600 720 Climbing Chicago Center
05:33AM 41.8833 -87.8667 44° Northeast 159 183 7,700 600 Climbing Chicago TRACON
05:34AM 41.8833 -87.8000 90° East 158 182 8,400 600 Climbing Chicago TRACON
05:35AM 41.9000 -87.7500 66° East 161 185 9,000 240 Climbing Chicago TRACON
05:36AM 41.9000 -87.6667 90° East 202 232 9,000  Level Chicago TRACON
05:37AM 41.9000 -87.5833 90° East 204 235 9,000  Level Chicago TRACON
05:38AM 41.9167 -87.5167 71° East 208 239 9,000  Level Chicago TRACON
05:39AM 41.9167 -87.4333 90° East 209 241 9,000  Level Chicago TRACON
05:40AM 41.9333 -87.3667 71° East 207 238 9,000  Level Chicago TRACON
05:41AM 41.9328 -87.3106 91° East 207 238 9,000  Level Chicago Center
05:42AM 41.9406 -87.2342 82° East 207 238 9,000  Level Chicago Center
05:43AM 41.9478 -87.1564 83° East 209 241 9,000  Level Chicago Center
05:44AM 41.9550 -87.0800 83° East 208 239 9,000  Level Chicago Center
05:46AM 41.9694 -86.9233 83° East 216 249 9,000  Level Chicago Center
05:47AM 41.9769 -86.8444 83° East 215 247 9,000  Level Chicago Center
05:48AM 41.9831 -86.7656 84° East 213 245 9,000  Level Chicago Center
05:49AM 41.9933 -86.6744 81° East 214 246 9,000  Level Chicago Center
05:50AM 42.0003 -86.5939 83° East 218 251 9,000  Level Chicago Center
05:51AM 42.0081 -86.5136 83° East 217 250 9,000  Level Chicago Center
05:52AM 42.0144 -86.4342 84° East 217 250 9,000  Level Chicago Center
05:53AM 42.0211 -86.3539 84° East 217 250 9,000  Level Chicago Center
05:54AM 42.0283 -86.2744 83° East 215 247 9,000  Level Chicago Center
05:55AM 42.0350 -86.1933 84° East 216 249 9,000  Level Chicago Center
05:56AM 42.0425 -86.1128 83° East 217 250 9,000  Level Chicago Center
05:57AM 42.0497 -86.0342 83° East 215 247 9,000  Level Chicago Center
05:58AM 42.0567 -85.9528 83° East 216 249 9,000  Level Chicago Center
05:59AM 42.0631 -85.8703 84° East 220 253 9,000  Level Chicago Center
06:00AM 42.0708 -85.7878 83° East 222 255 9,000  Level Chicago Center
06:01AM 42.0767 -85.7044 85° East 222 255 9,000  Level Chicago Center
06:02AM 42.0836 -85.6208 84° East 224 258 9,000  Level Chicago Center
06:03AM 42.0914 -85.5383 83° East 223 257 9,000  Level Chicago Center
06:04AM 42.0983 -85.4553 84° East 223 257 9,000  Level Chicago Center
06:05AM 42.1039 -85.3717 85° East 223 257 9,000  Level Chicago Center
06:06AM 42.1108 -85.2894 83° East 222 255 9,000  Level Chicago Center
06:07AM 42.1178 -85.2061 84° East 222 255 9,000  Level Chicago Center
06:08AM 42.1242 -85.1233 84° East 222 255 9,000  Level Chicago Center
06:09AM 42.1306 -85.0403 84° East 222 255 9,000  Level Chicago Center
06:10AM 42.1369 -84.9564 84° East 224 258 9,000  Level Chicago Center
06:11AM 42.1428 -84.8742 85° East 222 255 9,000  Level Chicago Center
06:12AM 42.1494 -84.7906 84° East 223 257 9,000  Level Chicago Center
06:13AM 42.1561 -84.7061 84° East 225 259 9,000  Level Chicago Center
06:14AM 42.1625 -84.6244 84° East 223 257 9,000 -300 Level Chicago Center
06:15AM 42.1681 -84.5364 85° East 231 266 8,400 -660 Descending Chicago Center
06:16AM 42.1733 -84.4778 83° East 243 280 8,000 -600 Descending Cleveland Center
06:17AM 42.1756 -84.4053 88° East 242 278 7,600 -600 Descending Cleveland Center
06:18AM 42.1850 -84.3106 82° East 240 276 7,000 -600 Descending Cleveland Center
06:19AM 42.1900 -84.2211 86° East 241 277 6,500 -480 Descending Cleveland Center
06:20AM 42.1972 -84.1261 84° East 232 267 6,000 -600 Descending Cleveland Center
06:21AM 42.2164 -84.0431 73° East 234 269 5,300 -840 Descending Cleveland Center
06:22AM 42.2456 -83.9744 60° Northeast 235 270 4,500 -720 Descending Cleveland Center
06:23AM 42.2811 -83.8978 58° Northeast 235 270 4,000 -300 Descending Cleveland Center
06:24AM 42.3142 -83.8322 56° Northeast 209 241 4,000 -300 Level Cleveland Center
06:25AM 42.3369 -83.7603 67° East 214 246 3,400 -540 Descending Cleveland Center
06:26AM 42.3578 -83.6911 68° East 210 242 3,000 -300 Descending Cleveland Center
06:27AM 42.3825 -83.6219 64° Northeast 180 207 2,900 -300 Descending Cleveland Center
06:28AM 42.3989 -83.5581 71° East 185 213 2,400 -300 Descending Cleveland Center
06:29AM 42.4044 -83.5019 82° East 154 177 2,400  Level Cleveland Center
06:30AM 42.3847 -83.4506 117° Southeast 140 161 2,500  Climbing Cleveland Center
06:31AM 42.3672 -83.4047 117° Southeast 144 166 2,400 -60 Descending Cleveland Center
06:32AM 42.3339 -83.4061 182° South 134 154 2,400  Level Cleveland Center
06:33AM 42.3039 -83.4383 218° Southwest 142 163 2,400 -300 Level Cleveland Center
06:34AM 42.2778 -83.4767 227° Southwest 118 136 1,800 -660 Descending Cleveland Center
06:35AM 42.2542 -83.5064 223° Southwest 106 122 1,100 -720 Descending Cleveland Center